Time,TemperatureF,DewpointF,PressureIn,WindDirection,WindDirectionDegrees,WindSpeedMPH,WindSpeedGustMPH,Humidity,HourlyPrecipIn,Conditions,Clouds,dailyrainin,SoftwareType,DateUTC
2013-03-11 00:03:00,29.0,28.0,29.82,SW,236,0.0,2.0,95,0.00,,,0.18,,2013-03-11 05:03:00,
2013-03-11 00:12:00,29.0,28.0,29.82,SW,236,0.0,2.0,95,0.00,,,0.18,,2013-03-11 05:12:00,
2013-03-11 00:22:00,29.0,28.0,29.80,WSW,245,0.0,2.0,95,0.00,,,0.18,,2013-03-11 05:22:00,
2013-03-11 00:32:00,29.0,28.0,29.79,WSW,257,0.0,2.0,96,0.00,,,0.15,,2013-03-11 05:32:00,
2013-03-11 00:42:00,29.0,28.0,29.79,WSW,257,0.0,2.0,96,0.00,,,0.15,,2013-03-11 05:42:00,
2013-03-11 00:52:00,29.0,28.0,29.78,West,277,0.0,3.0,96,0.00,,,0.15,,2013-03-11 05:52:00,
2013-03-11 01:02:00,29.0,28.0,29.77,WNW,299,0.0,3.0,96,0.00,,,0.15,,2013-03-11 06:02:00,
2013-03-11 01:12:00,29.0,28.0,29.77,WNW,299,0.0,3.0,96,0.00,,,0.15,,2013-03-11 06:12:00,
2013-03-11 01:22:00,29.0,28.0,29.76,NE,44,0.0,3.0,96,0.00,,,0.15,,2013-03-11 06:22:00,
2013-03-11 01:32:00,29.0,28.0,29.76,ESE,117,0.0,2.0,96,0.00,,,0.14,,2013-03-11 06:32:00,
2013-03-11 01:42:00,29.0,28.0,29.76,ESE,117,0.0,2.0,96,0.00,,,0.14,,2013-03-11 06:42:00,
2013-03-11 01:52:00,29.0,28.0,29.75,West,266,0.0,1.0,96,0.00,,,0.14,,2013-03-11 06:52:00,
2013-03-11 02:02:00,29.0,28.0,29.74,WNW,300,0.0,3.0,96,0.00,,,0.14,,2013-03-11 07:02:00,
2013-03-11 02:12:00,29.0,28.0,29.74,WNW,300,0.0,3.0,96,0.00,,,0.14,,2013-03-11 07:12:00,
2013-03-11 02:22:00,29.0,28.0,29.73,SE,146,0.0,3.0,96,0.00,,,0.14,,2013-03-11 07:22:00,
2013-03-11 02:32:00,29.0,28.0,29.73,SSE,148,0.0,0.0,96,0.00,,,0.12,,2013-03-11 07:32:00,
2013-03-11 02:42:00,29.0,28.0,29.73,SSE,148,0.0,0.0,96,0.00,,,0.12,,2013-03-11 07:42:00,
2013-03-11 02:52:00,29.0,28.0,29.72,SSE,158,0.0,0.0,96,0.00,,,0.12,,2013-03-11 07:52:00,
2013-03-11 03:02:00,29.0,28.0,29.71,ESE,122,0.0,0.0,95,0.00,,,0.12,,2013-03-11 08:02:00,
2013-03-11 03:12:00,29.0,28.0,29.71,ESE,122,0.0,0.0,95,0.00,,,0.12,,2013-03-11 08:12:00,
2013-03-11 03:22:00,29.0,28.0,29.70,WSW,246,0.0,0.0,95,0.00,,,0.12,,2013-03-11 08:22:00,
2013-03-11 03:32:00,29.0,28.0,29.69,ESE,121,0.0,0.0,95,0.00,,,0.11,,2013-03-11 08:32:00,
2013-03-11 03:42:00,29.0,28.0,29.69,ESE,121,0.0,0.0,95,0.00,,,0.11,,2013-03-11 08:42:00,
2013-03-11 03:52:00,29.0,28.0,29.68,NW,325,0.0,0.0,95,0.00,,,0.11,,2013-03-11 08:52:00,
2013-03-11 04:02:00,29.0,28.0,29.68,NW,325,0.0,0.0,95,0.00,,,0.11,,2013-03-11 09:02:00,
2013-03-11 04:12:00,29.0,28.0,29.68,NW,325,0.0,0.0,95,0.00,,,0.11,,2013-03-11 09:12:00,
2013-03-11 04:23:00,29.0,28.0,29.68,NW,325,0.0,0.0,95,0.00,,,0.11,,2013-03-11 09:23:00,
2013-03-11 13:33:00,32.0,28.0,29.58,NNW,332,0.0,0.0,86,0.00,,,0.01,,2013-03-11 18:33:00,
2013-03-11 13:43:00,32.0,28.0,29.58,NNW,332,0.0,0.0,86,0.00,,,0.01,,2013-03-11 18:43:00,
2013-03-11 13:53:00,32.0,28.0,29.58,NNW,332,0.0,0.0,86,0.00,,,0.01,,2013-03-11 18:53:00,
2013-03-11 14:02:00,31.0,28.0,29.58,SE,134,0.0,0.0,87,0.00,,,0.01,,2013-03-11 19:02:00,
2013-03-11 14:12:00,31.0,28.0,29.58,SE,134,0.0,0.0,87,0.00,,,0.01,,2013-03-11 19:12:00,
2013-03-11 14:22:00,32.0,28.0,29.56,WSW,252,0.0,0.0,86,0.00,,,0.01,,2013-03-11 19:22:00,
2013-03-11 14:32:00,31.0,27.0,29.57,NNE,18,0.0,0.0,86,0.00,,,0.00,,2013-03-11 19:32:00,
2013-03-11 14:42:00,31.0,27.0,29.57,NNE,18,0.0,0.0,86,0.00,,,0.00,,2013-03-11 19:42:00,
2013-03-11 14:52:00,31.0,27.0,29.57,WSW,253,0.0,0.0,86,0.00,,,0.00,,2013-03-11 19:52:00,
2013-03-11 15:02:00,30.0,27.0,29.57,SSW,204,0.0,0.0,87,0.00,,,0.00,,2013-03-11 20:02:00,
2013-03-11 15:12:00,30.0,27.0,29.57,SSW,204,0.0,0.0,87,0.00,,,0.00,,2013-03-11 20:12:00,
2013-03-11 15:22:00,30.0,26.0,29.57,NNW,338,0.0,0.0,86,0.00,,,0.00,,2013-03-11 20:22:00,
2013-03-11 15:32:00,30.0,26.0,29.57,NW,311,0.0,0.0,85,0.00,,,0.00,,2013-03-11 20:32:00,
2013-03-11 15:43:00,30.0,26.0,29.57,NW,311,0.0,0.0,85,0.00,,,0.00,,2013-03-11 20:43:00,
2013-03-11 15:52:00,30.0,26.0,29.57,NW,321,0.0,0.0,86,0.00,,,0.00,,2013-03-11 20:52:00,
2013-03-11 16:03:00,30.0,26.0,29.57,West,259,0.0,0.0,85,0.00,,,0.00,,2013-03-11 21:03:00,
2013-03-11 16:12:00,30.0,26.0,29.57,West,259,0.0,0.0,85,0.00,,,0.00,,2013-03-11 21:12:00,
2013-03-11 16:22:00,29.0,25.0,29.57,West,259,0.0,0.0,84,0.00,,,0.00,,2013-03-11 21:22:00,
2013-03-11 16:32:00,28.0,24.0,29.58,NW,314,0.0,0.0,85,0.00,,,0.00,,2013-03-11 21:32:00,
2013-03-11 16:43:00,28.0,24.0,29.58,NW,314,0.0,0.0,85,0.00,,,0.00,,2013-03-11 21:43:00,
2013-03-11 16:52:00,28.0,24.0,29.58,North,6,0.0,0.0,86,0.00,,,0.00,,2013-03-11 21:52:00,
2013-03-11 17:02:00,27.0,24.0,29.58,WNW,298,0.0,0.0,88,0.00,,,0.00,,2013-03-11 22:02:00,
2013-03-11 17:12:00,27.0,24.0,29.58,WNW,298,0.0,0.0,88,0.00,,,0.00,,2013-03-11 22:12:00,
2013-03-11 17:22:00,26.0,23.0,29.58,West,280,0.0,0.0,88,0.00,,,0.00,,2013-03-11 22:22:00,
2013-03-11 17:32:00,26.0,23.0,29.58,NW,308,0.0,0.0,89,0.00,,,0.00,,2013-03-11 22:32:00,
2013-03-11 17:43:00,26.0,23.0,29.58,NW,308,0.0,0.0,89,0.00,,,0.00,,2013-03-11 22:43:00,
2013-03-11 17:52:00,25.0,22.0,29.58,SSW,210,0.0,0.0,88,0.00,,,0.00,,2013-03-11 22:52:00,
2013-03-11 18:03:00,25.0,22.0,29.58,NNW,340,0.0,0.0,88,0.00,,,0.00,,2013-03-11 23:03:00,
2013-03-11 18:12:00,25.0,22.0,29.58,NNW,340,0.0,0.0,88,0.00,,,0.00,,2013-03-11 23:12:00,
2013-03-11 18:22:00,25.0,22.0,29.58,SW,235,0.0,0.0,87,0.00,,,0.00,,2013-03-11 23:22:00,
2013-03-11 18:32:00,24.0,21.0,29.57,NNE,23,0.0,0.0,87,0.00,,,0.00,,2013-03-11 23:32:00,
2013-03-11 18:43:00,24.0,21.0,29.57,NNE,23,0.0,0.0,87,0.00,,,0.00,,2013-03-11 23:43:00,
2013-03-11 18:52:00,24.0,21.0,29.58,West,277,0.0,0.0,87,0.00,,,0.00,,2013-03-11 23:52:00,
2013-03-11 19:02:00,24.0,21.0,29.57,WNW,284,0.0,0.0,87,0.00,,,0.00,,2013-03-12 00:02:00,
2013-03-11 19:12:00,24.0,21.0,29.57,WNW,284,0.0,0.0,87,0.00,,,0.00,,2013-03-12 00:12:00,
2013-03-11 19:22:00,24.0,21.0,29.58,SW,236,0.0,0.0,87,0.00,,,0.00,,2013-03-12 00:22:00,
2013-03-11 19:33:00,24.0,21.0,29.58,NW,308,0.0,0.0,88,0.00,,,0.00,,2013-03-12 00:33:00,
2013-03-11 19:42:00,24.0,21.0,29.58,NW,308,0.0,0.0,88,0.00,,,0.00,,2013-03-12 00:42:00,
2013-03-11 19:53:00,24.0,21.0,29.59,NW,316,0.0,0.0,88,0.00,,,0.00,,2013-03-12 00:53:00,
2013-03-11 20:02:00,23.0,20.0,29.60,SSE,164,0.0,0.0,89,0.00,,,0.00,,2013-03-12 01:02:00,
2013-03-11 20:12:00,23.0,20.0,29.60,SSE,164,0.0,0.0,89,0.00,,,0.00,,2013-03-12 01:12:00,
2013-03-11 20:22:00,23.0,20.0,29.62,NW,310,0.0,0.0,88,0.00,,,0.00,,2013-03-12 01:22:00,
2013-03-11 20:33:00,23.0,20.0,29.63,WNW,298,0.0,0.0,89,0.00,,,0.00,,2013-03-12 01:33:00,
2013-03-11 20:42:00,23.0,20.0,29.63,WNW,298,0.0,0.0,89,0.00,,,0.00,,2013-03-12 01:42:00,
2013-03-11 20:52:00,23.0,21.0,29.64,West,280,0.0,0.0,90,0.00,,,0.00,,2013-03-12 01:52:00,
2013-03-11 21:02:00,23.0,21.0,29.64,West,281,0.0,0.0,90,0.00,,,0.00,,2013-03-12 02:02:00,
2013-03-11 21:12:00,23.0,21.0,29.64,West,281,0.0,0.0,90,0.00,,,0.00,,2013-03-12 02:12:00,
2013-03-11 21:22:00,23.0,21.0,29.64,WNW,292,0.0,0.0,90,0.00,,,0.00,,2013-03-12 02:22:00,
2013-03-11 21:32:00,22.0,20.0,29.63,NW,319,0.0,0.0,90,0.00,,,0.00,,2013-03-12 02:32:00,
2013-03-11 21:42:00,22.0,20.0,29.63,NW,319,0.0,0.0,90,0.00,,,0.00,,2013-03-12 02:42:00,
2013-03-11 21:52:00,22.0,20.0,29.64,WNW,293,0.0,0.0,91,0.00,,,0.00,,2013-03-12 02:52:00,
2013-03-11 22:02:00,22.0,20.0,29.63,SW,229,0.0,0.0,90,0.00,,,0.00,,2013-03-12 03:02:00,
2013-03-11 22:12:00,22.0,20.0,29.63,SW,229,0.0,0.0,90,0.00,,,0.00,,2013-03-12 03:12:00,
2013-03-11 22:22:00,22.0,20.0,29.63,WNW,297,0.0,0.0,90,0.00,,,0.00,,2013-03-12 03:22:00,
2013-03-11 22:32:00,22.0,19.0,29.63,North,5,0.0,0.0,89,0.00,,,0.00,,2013-03-12 03:32:00,
2013-03-11 22:42:00,22.0,19.0,29.63,North,5,0.0,0.0,89,0.00,,,0.00,,2013-03-12 03:42:00,
2013-03-11 22:52:00,22.0,19.0,29.63,East,81,0.0,0.0,89,0.00,,,0.00,,2013-03-12 03:52:00,
2013-03-11 23:02:00,21.0,18.0,29.64,SSW,203,0.0,0.0,88,0.00,,,0.00,,2013-03-12 04:02:00,
2013-03-11 23:13:00,21.0,18.0,29.64,SSW,203,0.0,0.0,88,0.00,,,0.00,,2013-03-12 04:13:00,
2013-03-11 23:22:00,21.0,18.0,29.63,NNW,340,0.0,0.0,88,0.00,,,0.00,,2013-03-12 04:22:00,
2013-03-11 23:32:00,21.0,18.0,29.64,NW,325,0.0,0.0,88,0.00,,,0.00,,2013-03-12 04:32:00,
2013-03-11 23:43:00,21.0,18.0,29.64,NW,325,0.0,0.0,88,0.00,,,0.00,,2013-03-12 04:43:00,
2013-03-11 23:52:00,21.0,18.0,29.64,NNE,13,0.0,0.0,88,0.00,,,0.00,,2013-03-12 04:52:00,